Time;durP1;ratioP1;P1;durP2;ratioP2;P2;SDS_P1;SDS_P2;PMS_P1;PMS_P2;Temp;Humidity;BMP_temperature;BMP_pressure;BME280_temperature;BME280_humidity;BME280_pressure;Samples;Min_cycle;Max_cycle;Signal;HPM_P1;HPM_P2
2022/06/05 00:00:52;;;;;;;6.40;2.72;;;;;;;12.28;67.37;100588.47;5066183;28;20101;-46
2022/06/05 00:11:17;;;;;;;7.32;2.92;;;;;;;12.22;67.48;100578.09;5080999;27;20398;-49
2022/06/05 00:13:51;;;;;;;6.18;2.70;;;;;;;12.24;67.32;100578.09;5028009;28;20050;-47
2022/06/05 00:16:22;;;;;;;8.35;3.42;;;;;;;12.18;68.13;100578.97;5006939;28;20555;-47
2022/06/05 00:18:49;;;;;;;8.80;3.42;;;;;;;12.19;66.74;100575.47;5010970;28;20112;-47
2022/06/05 00:21:15;;;;;;;9.65;3.55;;;;;;;12.22;66.89;100567.69;5005536;28;20108;-47
2022/06/05 00:23:42;;;;;;;5.88;3.22;;;;;;;12.20;67.98;100564.25;5009398;28;20101;-46
2022/06/05 00:34:06;;;;;;;8.95;3.50;;;;;;;12.12;67.78;100550.41;5072547;27;20427;-46
2022/06/05 00:44:35;;;;;;;8.43;3.78;;;;;;;12.16;68.07;100536.56;5022843;27;20413;-43
2022/06/05 00:47:03;;;;;;;9.25;3.38;;;;;;;12.05;69.35;100545.19;5016034;28;20054;-43
2022/06/05 00:49:36;;;;;;;11.68;3.70;;;;;;;12.04;68.99;100542.59;5004756;28;20057;-41
2022/06/05 00:52:03;;;;;;;8.50;3.25;;;;;;;11.98;68.96;100546.06;5011178;28;20053;-42
2022/06/05 00:54:29;;;;;;;7.78;5.00;;;;;;;11.96;68.84;100542.59;5011916;28;20409;-42
2022/06/05 00:56:57;;;;;;;7.88;3.28;;;;;;;11.92;69.05;100536.53;5014898;28;20100;-44
2022/06/05 00:59:23;;;;;;;8.05;3.85;;;;;;;11.92;70.00;100540.88;5009310;28;20050;-43
2022/06/05 01:01:51;;;;;;;7.72;3.75;;;;;;;11.88;69.96;100528.75;5011428;28;20136;-44
2022/06/05 01:04:20;;;;;;;11.18;4.03;;;;;;;11.85;70.55;100526.19;5007154;28;20093;-46
2022/06/05 01:06:47;;;;;;;9.65;3.90;;;;;;;11.81;69.59;100515.78;5009091;28;20433;-45
2022/06/05 01:09:13;;;;;;;10.18;3.95;;;;;;;11.76;70.06;100509.72;5002596;28;20053;-43
2022/06/05 01:11:52;;;;;;;10.02;3.67;;;;;;;11.71;70.67;100519.25;5004734;28;20053;-45
2022/06/05 01:17:47;;;;;;;8.68;3.80;;;;;;;11.60;71.59;100520.97;5004377;28;20434;-42
2022/06/05 01:23:33;;;;;;;10.27;5.13;;;;;;;11.51;71.79;100512.31;5053829;27;20404;-42
2022/06/05 01:28:44;;;;;;;10.43;3.80;;;;;;;11.49;71.87;100510.59;5037428;27;20762;-45
2022/06/05 01:31:19;;;;;;;8.98;3.65;;;;;;;11.44;72.46;100513.16;5025095;28;20045;-47
2022/06/05 01:33:56;;;;;;;9.32;3.35;;;;;;;11.45;71.63;100509.69;5036083;28;20053;-44
2022/06/05 01:39:28;;;;;;;9.75;4.72;;;;;;;11.46;71.80;100502.78;5048895;27;21688;-44
2022/06/05 01:42:00;;;;;;;9.35;4.30;;;;;;;11.44;72.61;100506.25;5025746;28;20544;-46
2022/06/05 01:44:33;;;;;;;11.40;3.92;;;;;;;11.47;72.48;100510.59;5020231;28;20045;-44
2022/06/05 01:47:06;;;;;;;8.23;3.50;;;;;;;11.45;72.44;100501.91;5024764;28;20049;-48
2022/06/05 01:49:42;;;;;;;9.35;3.63;;;;;;;11.41;72.55;100502.78;5018901;28;20491;-45
2022/06/05 01:55:08;;;;;;;8.95;3.78;;;;;;;11.29;73.59;100486.34;5043606;27;20399;-44
2022/06/05 01:57:35;;;;;;;8.27;3.88;;;;;;;11.30;74.05;100493.28;5013688;28;20053;-46
2022/06/05 02:02:49;;;;;;;9.13;3.83;;;;;;;11.31;73.50;100494.13;5063168;28;20403;-47
2022/06/05 02:05:23;;;;;;;7.43;3.60;;;;;;;11.29;74.14;100486.34;5022310;28;20111;-45
2022/06/05 02:07:58;;;;;;;9.45;4.05;;;;;;;11.27;74.22;100493.28;5018739;28;20561;-49
2022/06/05 02:10:32;;;;;;;6.88;3.47;;;;;;;11.26;73.43;100486.38;5022339;28;20045;-46
2022/06/05 02:12:59;;;;;;;12.13;4.03;;;;;;;11.27;73.51;100487.22;5024450;28;20050;-46
2022/06/05 02:15:28;;;;;;;9.95;4.07;;;;;;;11.24;74.02;100488.06;5018051;28;20057;-47
2022/06/05 02:17:58;;;;;;;11.73;3.85;;;;;;;11.26;73.98;100486.38;5017808;28;20050;-46
2022/06/05 02:20:25;;;;;;;9.77;4.18;;;;;;;11.24;74.50;100485.47;5006662;28;20049;-48
2022/06/05 02:22:52;;;;;;;10.27;4.22;;;;;;;11.25;74.49;100483.75;5004954;28;20079;-46
2022/06/05 02:25:22;;;;;;;9.88;3.97;;;;;;;11.25;73.71;100476.84;5003129;28;20104;-46
2022/06/05 02:27:49;;;;;;;8.38;3.83;;;;;;;11.26;73.90;100477.72;5002135;28;20042;-46
2022/06/05 02:30:16;;;;;;;10.15;3.95;;;;;;;11.27;73.97;100472.53;5004469;28;20554;-48
2022/06/05 02:33:16;;;;;;;8.63;4.35;;;;;;;11.24;73.92;100477.69;5007915;28;20115;-44
2022/06/05 02:41:40;;;;;;;10.07;4.10;;;;;;;11.28;74.70;100474.25;5016007;28;20419;-44
2022/06/05 02:52:23;;;;;;;13.27;3.75;;;;;;;11.26;74.33;100452.66;5037175;27;20405;-45
2022/06/05 02:54:57;;;;;;;11.32;4.03;;;;;;;11.26;74.43;100434.50;5020529;28;20525;-44
2022/06/05 02:57:24;;;;;;;9.13;3.58;;;;;;;11.29;75.15;100436.22;5020549;28;20053;-44
2022/06/05 02:59:50;;;;;;;5.38;2.58;;;;;;;11.27;74.66;100438.81;5022083;28;20042;-43
2022/06/05 03:05:04;;;;;;;7.40;3.72;;;;;;;11.24;74.39;100436.22;5020111;28;20057;-47
2022/06/05 03:07:31;;;;;;;9.68;3.67;;;;;;;11.24;74.77;100425.84;5022466;28;20092;-48
2022/06/05 03:09:58;;;;;;;7.25;3.75;;;;;;;11.27;74.93;100420.66;5025344;28;20061;-45
2022/06/05 03:12:25;;;;;;;10.07;3.55;;;;;;;11.29;74.62;100420.66;5021623;28;20057;-45
2022/06/05 03:14:56;;;;;;;10.10;3.75;;;;;;;11.28;75.30;100424.13;5026430;28;20374;-46
2022/06/05 03:17:23;;;;;;;9.80;3.72;;;;;;;11.28;74.62;100424.97;5021190;28;20056;-47
2022/06/05 03:19:50;;;;;;;8.88;3.38;;;;;;;11.25;75.50;100422.38;5019688;28;20045;-43
2022/06/05 03:22:16;;;;;;;8.20;3.33;;;;;;;11.27;75.20;100412.88;5019681;28;20111;-43
2022/06/05 03:24:43;;;;;;;9.30;2.88;;;;;;;11.28;75.23;100412.00;5021382;28;20594;-43
2022/06/05 03:27:09;;;;;;;9.07;3.00;;;;;;;11.29;74.59;100407.72;5021857;28;20049;-45
2022/06/05 03:29:36;;;;;;;7.47;3.22;;;;;;;11.28;74.39;100412.00;5025257;28;20050;-42
2022/06/05 03:32:03;;;;;;;10.18;3.58;;;;;;;11.30;74.82;100410.31;5021098;28;20665;-45
2022/06/05 03:34:30;;;;;;;6.70;2.88;;;;;;;11.30;74.92;100410.31;5021440;28;20065;-43
2022/06/05 03:36:56;;;;;;;7.90;3.55;;;;;;;11.32;74.92;100416.34;5022351;28;20054;-43
2022/06/05 03:39:23;;;;;;;6.03;3.03;;;;;;;11.34;74.49;100421.53;5017304;28;20108;-45
2022/06/05 03:41:50;;;;;;;7.45;2.97;;;;;;;11.34;74.38;100416.34;5023173;28;20141;-47
2022/06/05 03:44:16;;;;;;;6.07;3.08;;;;;;;11.35;75.06;100412.03;5023587;28;20049;-46
2022/06/05 03:46:44;;;;;;;8.70;2.90;;;;;;;11.34;74.55;100405.13;5021229;28;20548;-43
2022/06/05 03:49:11;;;;;;;8.65;3.15;;;;;;;11.32;75.04;100403.38;5020423;28;20049;-47
2022/06/05 03:51:38;;;;;;;8.68;3.42;;;;;;;11.32;74.36;100403.38;5025305;28;20374;-46
2022/06/05 03:54:04;;;;;;;4.90;2.80;;;;;;;11.31;75.14;100414.63;5021491;28;20045;-44
2022/06/05 03:56:32;;;;;;;7.53;3.53;;;;;;;11.31;75.33;100414.63;5023859;28;20046;-45
2022/06/05 03:58:58;;;;;;;6.97;2.60;;;;;;;11.31;74.72;100412.03;5019725;28;20045;-44
2022/06/05 04:01:27;;;;;;;6.45;3.63;;;;;;;11.33;74.91;100417.22;5023242;28;20045;-47
2022/06/05 04:03:54;;;;;;;5.78;3.10;;;;;;;11.32;74.68;100424.13;5007091;28;20046;-42
2022/06/05 04:06:27;;;;;;;9.93;2.60;;;;;;;11.34;74.22;100426.72;5009546;28;20050;-45
2022/06/05 04:08:56;;;;;;;7.97;2.85;;;;;;;11.35;74.50;100425.00;5005758;28;20052;-45
2022/06/05 04:11:23;;;;;;;9.20;3.45;;;;;;;11.35;75.22;100428.44;5006581;28;20092;-45
2022/06/05 04:13:50;;;;;;;8.05;2.80;;;;;;;11.35;75.44;100433.63;5001814;28;20104;-46
2022/06/05 04:16:21;;;;;;;5.13;2.67;;;;;;;11.35;74.48;100432.78;5007801;28;20552;-44
2022/06/05 04:18:49;;;;;;;5.57;2.67;;;;;;;11.35;74.63;100423.25;5005663;28;20046;-43
2022/06/05 04:21:19;;;;;;;9.20;2.85;;;;;;;11.32;74.53;100416.34;5008298;28;20458;-44
2022/06/05 04:23:46;;;;;;;5.68;1.90;;;;;;;11.30;75.24;100410.31;5004381;28;20746;-44
2022/06/05 04:26:15;;;;;;;6.57;2.45;;;;;;;11.29;75.25;100403.38;5007383;28;20108;-45
2022/06/05 04:28:43;;;;;;;4.50;2.13;;;;;;;11.25;75.04;100401.63;5007944;28;20100;-44
2022/06/05 04:33:56;;;;;;;7.43;3.42;;;;;;;11.62;74.68;100384.34;5041519;27;20409;-42
2022/06/05 04:36:24;;;;;;;8.48;3.55;;;;;;;11.36;75.04;100382.63;4992604;28;20541;-46
2022/06/05 04:38:51;;;;;;;5.47;3.92;;;;;;;11.29;75.39;100377.44;4983956;28;20058;-43
2022/06/05 04:41:18;;;;;;;3.65;2.05;;;;;;;11.25;75.62;100369.69;4991295;28;20054;-44
2022/06/05 04:43:46;;;;;;;5.13;2.72;;;;;;;11.24;75.46;100368.81;4993567;28;20050;-43
2022/06/05 04:46:13;;;;;;;4.30;2.00;;;;;;;11.22;75.25;100375.72;4989723;28;20046;-42
2022/06/05 04:48:40;;;;;;;4.22;2.90;;;;;;;11.19;75.68;100371.38;4981192;28;20050;-44
2022/06/05 04:51:08;;;;;;;6.93;3.10;;;;;;;11.22;76.01;100375.72;4993039;28;20057;-43
2022/06/05 04:53:36;;;;;;;3.72;1.45;;;;;;;11.21;75.41;100384.34;4980449;28;20101;-43
2022/06/05 04:56:06;;;;;;;4.00;2.80;;;;;;;11.21;75.14;100388.69;5003871;28;20065;-43
2022/06/05 04:58:33;;;;;;;6.22;3.00;;;;;;;11.22;75.70;100387.81;4991766;28;20054;-44
2022/06/05 05:01:00;;;;;;;4.82;3.15;;;;;;;11.23;75.23;100386.94;4985838;28;20086;-45
2022/06/05 05:03:27;;;;;;;3.65;2.63;;;;;;;11.24;75.12;100389.53;4992200;28;20043;-43
2022/06/05 05:05:55;;;;;;;4.53;2.97;;;;;;;11.26;75.30;100382.66;4984522;28;20049;-46
2022/06/05 05:08:22;;;;;;;4.13;3.10;;;;;;;11.24;75.75;100392.13;4990359;28;20097;-42
2022/06/05 05:10:48;;;;;;;4.53;2.50;;;;;;;11.23;75.47;100398.19;4983172;28;20058;-44
2022/06/05 05:13:15;;;;;;;3.38;1.40;;;;;;;11.25;75.20;100391.25;4990187;28;20045;-44
2022/06/05 05:15:42;;;;;;;4.47;2.65;;;;;;;11.26;75.27;100392.13;4985719;28;20506;-43
2022/06/05 05:18:08;;;;;;;5.40;2.65;;;;;;;11.25;75.04;100386.06;4989324;28;20051;-46
2022/06/05 05:20:35;;;;;;;5.20;2.65;;;;;;;11.27;75.17;100384.38;4992459;28;20069;-48
2022/06/05 05:23:02;;;;;;;5.50;3.33;;;;;;;11.27;75.68;100384.38;4990909;28;20050;-45
2022/06/05 05:25:28;;;;;;;4.03;2.88;;;;;;;11.26;75.85;100384.38;4991030;28;20053;-43
2022/06/05 05:27:55;;;;;;;4.07;3.17;;;;;;;11.24;75.66;100389.53;4994862;28;20050;-47
2022/06/05 05:30:22;;;;;;;5.57;2.75;;;;;;;11.23;74.97;100377.44;4991152;28;20058;-46
2022/06/05 05:32:48;;;;;;;5.57;2.88;;;;;;;11.22;75.80;100375.72;4989827;28;20490;-42
2022/06/05 05:35:15;;;;;;;6.50;1.77;;;;;;;11.24;75.06;100373.97;4986914;28;20053;-43
2022/06/05 05:37:41;;;;;;;3.70;2.15;;;;;;;11.23;75.45;100381.75;4991066;28;20050;-42
2022/06/05 05:42:57;;;;;;;2.83;1.50;;;;;;;11.24;75.03;100384.34;4978605;28;20465;-44
2022/06/05 05:45:24;;;;;;;4.25;3.30;;;;;;;11.25;76.02;100388.66;4973358;28;20054;-44
2022/06/05 05:47:50;;;;;;;3.40;2.35;;;;;;;11.26;75.27;100386.97;4978899;28;20046;-44
2022/06/05 05:50:17;;;;;;;2.80;2.03;;;;;;;11.26;75.44;100387.84;4976778;28;20050;-44
2022/06/05 05:52:45;;;;;;;4.25;2.58;;;;;;;11.25;75.93;100383.47;4968474;28;20051;-42
2022/06/05 05:55:15;;;;;;;4.57;3.35;;;;;;;11.22;76.04;100375.72;4972131;28;20065;-43
2022/06/05 05:57:42;;;;;;;5.88;2.17;;;;;;;11.20;75.88;100372.25;4979309;28;20051;-43
2022/06/05 06:00:12;;;;;;;4.57;3.05;;;;;;;11.22;76.39;100373.13;4967630;28;20055;-43
2022/06/05 06:02:39;;;;;;;3.17;2.45;;;;;;;11.24;75.32;100379.16;4973460;28;20104;-45
2022/06/05 06:05:10;;;;;;;2.22;1.27;;;;;;;11.25;75.40;100375.72;4980340;28;20054;-43
2022/06/05 06:07:37;;;;;;;3.83;2.60;;;;;;;11.24;76.03;100367.94;4976589;28;20054;-44
2022/06/05 06:10:04;;;;;;;5.03;2.83;;;;;;;11.24;76.58;100366.22;4975709;28;20050;-45
2022/06/05 06:12:31;;;;;;;3.90;2.72;;;;;;;11.26;75.50;100361.91;4970596;28;21737;-43
2022/06/05 06:14:58;;;;;;;4.22;2.95;;;;;;;11.27;76.28;100368.81;4973653;28;20051;-45
2022/06/05 06:17:25;;;;;;;4.93;3.58;;;;;;;11.28;76.42;100369.69;4980391;28;20364;-45
2022/06/05 06:19:51;;;;;;;2.75;2.22;;;;;;;11.25;76.47;100375.72;4972398;28;20054;-46
2022/06/05 06:22:19;;;;;;;3.85;2.95;;;;;;;11.27;75.67;100384.38;4970961;28;20045;-44
2022/06/05 06:24:46;;;;;;;3.85;1.73;;;;;;;11.29;76.01;100400.75;4969281;28;20062;-47
2022/06/05 06:27:13;;;;;;;3.72;2.72;;;;;;;11.32;76.03;100400.78;4964005;28;20058;-43
2022/06/05 06:29:39;;;;;;;3.92;2.85;;;;;;;11.36;76.21;100398.19;4974619;28;20106;-44
2022/06/05 06:32:06;;;;;;;4.05;2.78;;;;;;;11.38;75.86;100399.06;4969384;28;20470;-44
2022/06/05 06:34:33;;;;;;;3.60;2.53;;;;;;;11.39;76.20;100398.19;4975791;28;20051;-44
2022/06/05 06:36:59;;;;;;;4.50;2.35;;;;;;;11.38;76.17;100386.94;4969841;28;20104;-44
2022/06/05 06:39:28;;;;;;;5.57;3.35;;;;;;;11.37;75.53;100386.94;4972574;28;20051;-46
2022/06/05 06:41:55;;;;;;;4.50;2.83;;;;;;;11.39;75.59;100404.22;4968300;28;20174;-49
2022/06/05 06:44:22;;;;;;;4.10;2.83;;;;;;;11.38;76.55;100396.47;4960928;28;20050;-45
2022/06/05 06:46:49;;;;;;;4.00;2.97;;;;;;;11.40;75.50;100386.94;4968676;28;20684;-46
2022/06/05 06:49:16;;;;;;;4.43;2.80;;;;;;;11.42;76.56;100393.00;4960485;28;20058;-45
2022/06/05 06:51:42;;;;;;;4.53;2.90;;;;;;;11.42;76.18;100395.59;4970767;28;20491;-45
2022/06/05 06:54:09;;;;;;;3.92;2.83;;;;;;;11.44;75.45;100396.44;4975230;28;20117;-48
2022/06/05 06:56:36;;;;;;;3.42;1.38;;;;;;;11.48;75.72;100403.34;4966883;28;20764;-46
2022/06/05 06:59:03;;;;;;;5.82;2.75;;;;;;;11.52;75.47;100399.91;4968556;28;20055;-44
2022/06/05 07:01:30;;;;;;;2.88;1.58;;;;;;;11.52;75.47;100384.34;4963462;28;20459;-45
2022/06/05 07:03:57;;;;;;;4.10;2.78;;;;;;;11.52;76.56;100389.53;4965109;28;20475;-44
2022/06/05 07:06:23;;;;;;;5.00;3.28;;;;;;;11.51;76.58;100382.63;4966830;28;20133;-45
2022/06/05 07:08:51;;;;;;;4.07;2.17;;;;;;;11.50;76.56;100386.09;4981691;28;20058;-45
2022/06/05 07:11:19;;;;;;;3.08;2.45;;;;;;;11.52;76.68;100371.38;4986040;28;20133;-42
2022/06/05 07:13:49;;;;;;;3.35;2.90;;;;;;;11.55;76.01;100367.94;4982916;28;20051;-46
2022/06/05 07:16:16;;;;;;;4.40;2.65;;;;;;;11.57;75.78;100354.09;4983229;28;20053;-44
2022/06/05 07:18:43;;;;;;;3.28;2.20;;;;;;;11.58;76.54;100331.56;4976714;28;20061;-44
2022/06/05 07:21:14;;;;;;;1.98;1.15;;;;;;;11.61;75.31;100312.53;4971645;28;20102;-46
2022/06/05 07:23:40;;;;;;;3.13;2.80;;;;;;;11.61;75.60;100312.53;4970701;28;20043;-44
2022/06/05 07:26:11;;;;;;;2.60;2.22;;;;;;;11.55;76.72;100316.88;4983847;28;20050;-49
2022/06/05 07:28:38;;;;;;;2.45;2.03;;;;;;;11.55;76.66;100348.00;4970361;28;20046;-46
2022/06/05 07:31:07;;;;;;;3.60;2.35;;;;;;;11.57;76.74;100355.81;4981837;28;20043;-43
2022/06/05 07:33:35;;;;;;;2.60;2.05;;;;;;;11.62;75.99;100368.78;4982705;28;20062;-47
2022/06/05 07:36:05;;;;;;;3.03;2.03;;;;;;;11.62;75.46;100364.44;4962164;28;20054;-45
2022/06/05 07:38:34;;;;;;;3.20;1.80;;;;;;;11.64;76.63;100367.91;4982758;28;20046;-47
2022/06/05 07:41:02;;;;;;;2.85;2.05;;;;;;;11.65;76.10;100373.97;4987099;28;20096;-46
2022/06/05 07:43:29;;;;;;;3.30;2.35;;;;;;;11.64;76.28;100380.00;4986124;28;20054;-44
2022/06/05 07:45:57;;;;;;;2.65;2.40;;;;;;;11.67;75.62;100382.59;4982370;28;20080;-50
2022/06/05 07:48:23;;;;;;;4.32;2.28;;;;;;;11.69;75.28;100384.31;4985655;28;20046;-44
2022/06/05 07:56:35;;;;;;;3.67;2.90;;;;;;;11.72;75.77;100349.69;4987151;28;20116;-44
2022/06/05 07:59:02;;;;;;;3.15;1.33;;;;;;;11.78;76.03;100349.69;4970974;28;20614;-43
2022/06/05 08:01:49;;;;;;;3.00;2.67;;;;;;;11.85;75.92;100340.16;4973635;28;20058;-46
2022/06/05 08:04:16;;;;;;;2.55;2.25;;;;;;;11.91;75.82;100340.13;4983595;28;20043;-44
2022/06/05 08:06:49;;;;;;;3.85;2.50;;;;;;;11.93;75.49;100347.94;4979406;28;20054;-46
2022/06/05 08:09:15;;;;;;;3.03;1.48;;;;;;;11.98;76.53;100345.28;4977399;28;20449;-45
2022/06/05 08:11:45;;;;;;;4.03;2.28;;;;;;;12.01;76.42;100353.94;4984590;28;20069;-47
2022/06/05 08:14:14;;;;;;;2.55;2.33;;;;;;;12.04;75.90;100353.94;4979072;28;20039;-47
2022/06/05 08:16:43;;;;;;;2.20;1.92;;;;;;;12.05;74.83;100367.78;4984657;28;20057;-46
2022/06/05 08:19:13;;;;;;;4.10;2.28;;;;;;;12.07;75.97;100372.16;4985994;28;20071;-45
2022/06/05 08:21:40;;;;;;;3.58;2.53;;;;;;;12.08;75.80;100366.06;4975774;28;20066;-43
2022/06/05 08:24:07;;;;;;;2.42;2.00;;;;;;;12.10;74.96;100371.25;4974857;28;20483;-45
2022/06/05 08:26:35;;;;;;;3.10;2.80;;;;;;;12.10;75.15;100365.19;4986882;28;20050;-43
2022/06/05 08:29:02;;;;;;;4.07;2.10;;;;;;;12.10;74.75;100354.81;4986923;28;20047;-46
2022/06/05 08:31:29;;;;;;;1.88;1.67;;;;;;;12.09;74.78;100356.53;4983992;28;20050;-49
2022/06/05 08:33:57;;;;;;;3.75;2.38;;;;;;;12.08;75.50;100357.41;4977207;28;20134;-45
2022/06/05 08:36:25;;;;;;;3.45;2.10;;;;;;;12.08;75.47;100347.91;4982457;28;20061;-47
2022/06/05 08:44:41;;;;;;;1.92;1.25;;;;;;;12.07;75.71;100351.38;5028863;27;20402;-46
2022/06/05 08:47:22;;;;;;;2.00;1.33;;;;;;;12.14;75.84;100346.13;5020406;28;20147;-46
2022/06/05 08:53:06;;;;;;;2.58;0.98;;;;;;;12.22;74.79;100344.38;5041804;27;20401;-47
2022/06/05 09:19:17;;;;;;;2.17;1.65;;;;;;;12.68;74.21;100337.19;5105834;27;20402;-45
2022/06/05 09:21:51;;;;;;;2.42;1.20;;;;;;;12.62;73.96;100342.41;5082849;28;20044;-46
2022/06/05 09:24:26;;;;;;;1.20;0.93;;;;;;;12.53;75.26;100333.81;5083697;28;20460;-46
2022/06/05 09:27:00;;;;;;;1.33;0.95;;;;;;;12.51;74.85;100327.78;5086553;28;20052;-47
2022/06/05 09:37:48;;;;;;;2.08;1.80;;;;;;;12.50;74.02;100323.41;5061516;27;20405;-49
2022/06/05 09:40:25;;;;;;;2.15;1.95;;;;;;;12.56;74.39;100331.19;5012599;28;20100;-43
2022/06/05 09:43:11;;;;;;;;;;;;;;;12.42;73.97;100326.09;5019344;28;20053;-47
2022/06/05 09:46:17;;;;;;;1.77;1.63;;;;;;;12.41;74.40;100319.16;5044565;28;19976;-45
2022/06/05 15:05:51;;;;;;;2.55;1.38;;;;;;;14.01;70.97;100256.09;5062707;28;20395;-43
2022/06/05 15:11:31;;;;;;;2.88;1.35;;;;;;;13.94;71.86;100259.66;5018721;28;20416;-40
2022/06/05 15:14:19;;;;;;;1.33;1.00;;;;;;;13.85;71.23;100258.06;4994779;28;20042;-42
2022/06/05 15:22:25;;;;;;;1.80;1.15;;;;;;;13.81;72.35;100253.78;5099561;27;20404;-44
2022/06/05 15:24:59;;;;;;;2.25;1.05;;;;;;;13.84;71.25;100249.38;5092171;28;20067;-43
2022/06/05 15:27:55;;;;;;;2.20;1.40;;;;;;;13.80;72.16;100252.91;5086928;28;20044;-52
2022/06/05 15:42:12;;;;;;;2.50;1.10;;;;;;;13.80;71.75;100258.09;5095599;27;20394;-45
2022/06/05 15:50:40;;;;;;;3.05;1.25;;;;;;;13.85;72.12;100242.44;5039773;27;20408;-45
2022/06/05 15:58:43;;;;;;;1.70;0.70;;;;;;;13.93;72.74;100226.69;5032646;28;20417;-45
2022/06/05 16:01:16;;;;;;;1.50;0.90;;;;;;;13.96;71.79;100227.53;5016013;28;20048;-40
2022/06/05 16:06:24;;;;;;;2.97;1.20;;;;;;;13.97;72.62;100220.56;5071381;27;20738;-40
2022/06/05 16:22:23;;;;;;;2.50;2.28;;;;;;;13.74;72.57;100206.09;5062686;28;20051;-42
2022/06/05 16:24:59;;;;;;;0.88;0.40;;;;;;;13.75;72.37;100200.03;5055944;28;20425;-44
2022/06/05 16:27:46;;;;;;;2.40;1.67;;;;;;;13.73;71.75;100187.03;5063003;28;20118;-47
2022/06/05 16:30:28;;;;;;;2.65;2.20;;;;;;;13.80;72.22;100185.22;5048126;28;20048;-48
2022/06/05 16:32:56;;;;;;;2.42;2.22;;;;;;;13.90;72.60;100182.47;5066355;28;20052;-40
2022/06/05 16:38:13;;;;;;;1.60;0.80;;;;;;;13.96;71.87;100179.78;5018418;28;20415;-43
2022/06/05 16:40:40;;;;;;;0.80;0.55;;;;;;;13.98;72.43;100178.00;5021705;28;20576;-42
2022/06/05 16:43:18;;;;;;;2.13;0.85;;;;;;;13.95;71.45;100173.72;4988184;28;20562;-46
2022/06/05 16:49:00;;;;;;;2.17;1.23;;;;;;;14.25;70.82;100181.06;5047532;27;20412;-43
2022/06/05 16:51:46;;;;;;;2.17;0.95;;;;;;;14.12;72.12;100170.84;5016202;28;20041;-50
2022/06/05 16:59:58;;;;;;;2.58;0.90;;;;;;;13.97;71.64;100171.09;5045713;27;21399;-46
2022/06/05 17:08:10;;;;;;;2.65;2.17;;;;;;;13.93;71.17;100188.50;5007063;28;20419;-42
2022/06/05 17:26:53;;;;;;;1.23;0.90;;;;;;;14.00;70.58;100189.28;5035726;28;20414;-51
2022/06/05 17:33:05;;;;;;;1.55;1.17;;;;;;;14.05;71.32;100194.41;5053576;27;20438;-43
2022/06/05 17:47:00;;;;;;;2.78;2.58;;;;;;;14.11;70.57;100192.56;5019732;28;20408;-44
